Woodland Hills, IL

6:47 PM CST on February 24, 2017 (GMT -0600)
MD4895 | | Change Station

Elev 724 ft 41.82 °N, 89.67 °W | Updated 19 minutes ago

Overcast
Overcast
33.0 °F
Feels Like 33 °F
N
0.0
Wind Variable Wind from NNW
Gusts 7.0 mph

Today
High -- | Low -- °F
--% Chance of Precip.
Yesterday
High -- | Low -- °F
Precip. -- in
Pressure 29.66 in
Visibility 3.0 miles
Clouds Mostly Cloudy 600 ft
Mostly Cloudy 1100 ft
Overcast 3000 ft
Windchill 33 °F
Dew Point 32 °F
Humidity 97%
Rainfall 0.15 in
Snow Depth Not available.
6:40 AM 5:43 PM
Waning Crescent, 3% visible
METAR KSQI 242356Z AUTO 34011KT 3SM UP BR BKN006 BKN011 OVC030 01/00 A2960 RMK AO2 CIG 004V008 SLP044 6//// T00060000 10039 20006 53014 FZRANO PNO $
Pressure 29.66 in
Visibility 3.0 miles
Clouds Mostly Cloudy 600 ft
Mostly Cloudy 1100 ft
Overcast 3000 ft
Windchill 33 °F
Dew Point 32 °F
Humidity 97%
Rainfall 0.15 in
Snow Depth Not available.
6:40 AM 5:43 PM
Waning Crescent, 3% visible
METAR KSQI 242356Z AUTO 34011KT 3SM UP BR BKN006 BKN011 OVC030 01/00 A2960 RMK AO2 CIG 004V008 SLP044 6//// T00060000 10039 20006 53014 FZRANO PNO $

Get Your Daily Forecast Email!

Thanks for signing up!

Be on the lookout for a verification email in your inbox.

You'll start receiving the daily forecast at 8 AM.

×

10-Day Weather Forecast

Almanac

Astronomy

Feb. 24, 2017 Rise Set
Actual Time
Civil Twilight
Nautical Twilight
Astronomical Twilight
Moon
Length of Visible Light
Length of Day
Tomorrow will be .
, % of the Moon is Illuminated

Today's Extremes

State Highs State Lows

Community

WunderPhotos

Upload Photos

1,962,540 photos uploaded!

WunderBlog® & News

Nearby

Air Quality

  Air Quality AQ Index Pollutant
Not available.

Snow Depth

Station Depth Elevation

Earthquake Activity

City Distance Mag. Time & Date
Minimum magnitude displayed is 2.5.

Coastal Water Temperatures

Place Temperature

Stations

Nearby Weather Stations

Station Location Temp. Windchill Dew Point Humidity Wind Precip. Elev Updated Type
                   

Watches & Warnings

There are currently no watches in effect.